createdAt,value
2023-09-29T00:02:54.246Z,10.73
2023-09-29T00:05:56.637Z,13.18
2023-09-29T00:08:59.481Z,10.75
2023-09-29T00:12:01.701Z,9.30
2023-09-29T00:15:07.647Z,11.02
2023-09-29T00:18:09.962Z,11.23
2023-09-29T00:21:12.483Z,11.00
2023-09-29T00:24:14.678Z,11.52
2023-09-29T00:27:29.702Z,13.02
2023-09-29T00:30:31.917Z,10.02
2023-09-29T00:33:34.647Z,11.23
2023-09-29T00:36:37.004Z,10.75
2023-09-29T00:39:39.210Z,11.93
2023-09-29T00:42:42.979Z,9.93
2023-09-29T00:45:46.309Z,13.95
2023-09-29T00:48:50.460Z,8.40
2023-09-29T00:51:53.268Z,11.87
2023-09-29T00:54:55.969Z,10.02
2023-09-29T00:57:59.780Z,12.57
2023-09-29T01:01:02.799Z,10.52
2023-09-29T01:04:05.953Z,11.38
2023-09-29T01:07:08.963Z,11.90
2023-09-29T01:10:20.263Z,10.32
2023-09-29T01:13:23.722Z,13.80
2023-09-29T01:16:26.134Z,10.98
2023-09-29T01:19:28.363Z,9.15
2023-09-29T01:22:31.435Z,9.40
2023-09-29T01:25:34.271Z,10.82
2023-09-29T01:28:36.535Z,10.00
2023-09-29T01:31:40.156Z,12.82
2023-09-29T01:34:42.356Z,11.57
2023-09-29T01:37:47.937Z,10.30
2023-09-29T01:40:50.135Z,9.63
2023-09-29T01:43:53.565Z,12.47
2023-09-29T01:46:57.120Z,9.30
2023-09-29T01:50:00.529Z,9.18
2023-09-29T01:53:03.338Z,10.10
2023-09-29T01:56:05.653Z,10.20
2023-09-29T01:59:07.908Z,11.43
2023-09-29T02:02:10.186Z,11.45
2023-09-29T02:05:13.137Z,10.98
2023-09-29T02:08:15.876Z,10.68
2023-09-29T02:11:18.785Z,13.57
2023-09-29T02:14:21.677Z,8.10
2023-09-29T02:17:24.180Z,8.32
2023-09-29T02:20:34.853Z,13.38
2023-09-29T02:23:39.397Z,10.10
2023-09-29T02:26:42.785Z,8.55
2023-09-29T02:29:45.107Z,8.18
2023-09-29T02:32:47.629Z,8.80
2023-09-29T02:35:51.623Z,8.15
2023-09-29T02:38:54.237Z,9.02
2023-09-29T02:41:57.646Z,10.18
2023-09-29T02:44:59.913Z,10.83
2023-09-29T02:48:03.599Z,12.32
2023-09-29T02:51:15.359Z,8.32
2023-09-29T02:54:17.536Z,11.60
2023-09-29T02:57:22.137Z,12.82
2023-09-29T03:00:28.020Z,10.52
2023-09-29T03:03:30.530Z,11.75
2023-09-29T03:06:33.419Z,7.85
2023-09-29T03:09:35.624Z,8.77
2023-09-29T03:12:37.788Z,8.65
2023-09-29T03:15:42.777Z,7.80
2023-09-29T03:18:45.069Z,11.35
2023-09-29T03:21:47.359Z,9.95
2023-09-29T03:24:49.593Z,9.87
2023-09-29T03:27:51.845Z,11.57
2023-09-29T03:30:54.165Z,8.00
2023-09-29T03:33:56.432Z,7.90
2023-09-29T03:36:58.679Z,8.95
2023-09-29T03:40:00.881Z,13.50
2023-09-29T03:43:03.052Z,11.70
2023-09-29T03:46:05.738Z,10.70
2023-09-29T03:49:08.500Z,10.15
2023-09-29T03:52:10.729Z,10.25
2023-09-29T03:55:14.246Z,9.07
2023-09-29T03:58:16.567Z,13.45
2023-09-29T04:01:18.994Z,9.50
2023-09-29T04:04:21.321Z,10.25
2023-09-29T04:07:23.557Z,9.45
2023-09-29T04:10:25.903Z,9.25
2023-09-29T04:13:28.163Z,13.00
2023-09-29T04:16:33.514Z,10.77
2023-09-29T04:19:36.584Z,10.02
2023-09-29T04:22:39.092Z,10.30
2023-09-29T04:25:41.292Z,9.53
2023-09-29T04:28:43.536Z,9.90
2023-09-29T04:31:45.737Z,8.15
2023-09-29T04:34:47.921Z,9.65
2023-09-29T04:37:51.304Z,10.98
2023-09-29T04:40:53.560Z,10.02
2023-09-29T04:43:55.781Z,11.85
2023-09-29T04:46:58.039Z,9.83
2023-09-29T04:50:00.237Z,9.40
2023-09-29T04:53:02.489Z,8.98
2023-09-29T04:56:04.760Z,10.87
2023-09-29T04:59:07.683Z,9.80
2023-09-29T05:02:09.963Z,10.95
2023-09-29T05:05:12.195Z,9.45
2023-09-29T05:08:16.037Z,9.88
2023-09-29T05:11:22.479Z,9.02
2023-09-29T05:14:25.897Z,16.02
2023-09-29T05:17:44.423Z,9.43
2023-09-29T05:20:51.747Z,11.18
2023-09-29T05:23:54.578Z,10.40
2023-09-29T05:26:57.132Z,11.60
2023-09-29T05:30:00.076Z,10.57
2023-09-29T05:33:02.363Z,8.65
2023-09-29T05:36:05.090Z,11.90
2023-09-29T05:39:07.332Z,9.77
2023-09-29T05:42:13.806Z,14.82
2023-09-29T05:45:16.157Z,10.90
2023-09-29T05:48:18.656Z,12.97
2023-09-29T05:51:21.082Z,12.25
2023-09-29T05:54:23.764Z,10.70
2023-09-29T05:57:26.360Z,10.27
2023-09-29T06:00:29.804Z,8.80
2023-09-29T06:03:32.235Z,12.32
2023-09-29T06:06:35.377Z,12.15
2023-09-29T06:09:37.831Z,9.70
2023-09-29T06:12:41.922Z,10.35
2023-09-29T06:15:46.601Z,11.93
2023-09-29T06:22:16.053Z,13.27
2023-09-29T06:25:18.484Z,17.48
2023-09-29T06:28:21.252Z,13.33
2023-09-29T06:31:25.212Z,8.85
2023-09-29T06:34:27.470Z,9.73
2023-09-29T06:37:30.185Z,13.82
2023-09-29T06:40:32.458Z,13.00
2023-09-29T06:43:35.142Z,11.30
2023-09-29T06:46:38.936Z,12.57
2023-09-29T06:49:43.711Z,8.90
2023-09-29T06:52:46.285Z,9.70
2023-09-29T06:55:52.687Z,11.43
2023-09-29T06:58:56.844Z,9.17
2023-09-29T07:01:59.527Z,15.95
2023-09-29T07:05:04.637Z,12.80
2023-09-29T07:08:09.487Z,10.80
2023-09-29T07:11:23.536Z,12.82
2023-09-29T07:14:32.288Z,11.18
2023-09-29T07:17:36.560Z,10.80
2023-09-29T07:20:39.223Z,10.30
2023-09-29T07:23:42.104Z,10.27
2023-09-29T07:26:44.477Z,10.35
2023-09-29T07:29:50.986Z,10.80
2023-09-29T07:32:54.444Z,11.43
2023-09-29T07:35:58.314Z,9.77
2023-09-29T07:39:09.162Z,7.28
2023-09-29T07:42:12.384Z,9.45
2023-09-29T07:45:14.971Z,10.40
2023-09-29T07:48:25.203Z,10.48
2023-09-29T07:51:31.072Z,10.70
2023-09-29T07:54:35.933Z,8.85
2023-09-29T07:57:45.010Z,8.90
2023-09-29T08:00:55.935Z,10.23
2023-09-29T08:04:04.901Z,8.43
2023-09-29T08:07:26.048Z,8.98
2023-09-29T08:10:28.489Z,10.27
2023-09-29T08:13:31.069Z,9.90
2023-09-29T08:16:34.089Z,10.10
2023-09-29T08:19:37.013Z,8.07
2023-09-29T08:22:41.614Z,8.20
2023-09-29T08:25:45.491Z,8.88
2023-09-29T08:28:50.138Z,9.85
2023-09-29T08:31:55.350Z,10.30
2023-09-29T08:35:01.149Z,11.23
2023-09-29T08:38:04.077Z,7.90
2023-09-29T08:41:09.847Z,7.22
2023-09-29T08:44:16.098Z,12.32
2023-09-29T08:47:20.177Z,10.40
2023-09-29T08:50:36.799Z,9.98
2023-09-29T08:53:44.920Z,8.37
2023-09-29T08:57:19.145Z,8.98
2023-09-29T09:00:22.492Z,8.00
2023-09-29T09:03:38.931Z,6.83
2023-09-29T09:06:42.418Z,8.77
2023-09-29T09:10:02.837Z,7.95
2023-09-29T09:13:09.384Z,6.65
2023-09-29T09:16:13.026Z,6.80
2023-09-29T09:19:16.374Z,9.13
2023-09-29T09:22:38.952Z,11.45
2023-09-29T09:25:45.730Z,12.57
2023-09-29T09:28:47.957Z,7.97
2023-09-29T09:31:56.528Z,9.18
2023-09-29T09:34:59.537Z,9.27
2023-09-29T09:38:02.708Z,7.53
2023-09-29T09:41:06.579Z,9.75
2023-09-29T09:44:09.008Z,7.80
2023-09-29T09:47:15.473Z,6.22
2023-09-29T09:50:17.875Z,7.40
2023-09-29T09:53:22.164Z,6.68
2023-09-29T09:56:25.791Z,7.53
2023-09-29T09:59:29.263Z,9.65
2023-09-29T10:02:34.634Z,7.15
2023-09-29T10:05:41.327Z,8.40
2023-09-29T10:08:45.757Z,5.55
2023-09-29T10:12:00.788Z,8.23
2023-09-29T10:15:07.185Z,6.93
2023-09-29T10:18:20.918Z,7.63
2023-09-29T10:21:26.990Z,7.13
2023-09-29T10:24:30.119Z,7.50
2023-09-29T10:27:41.249Z,6.20
2023-09-29T10:30:43.462Z,10.52
2023-09-29T10:33:46.077Z,7.55
2023-09-29T10:36:56.003Z,8.70
2023-09-29T10:39:59.245Z,8.10
2023-09-29T10:43:03.866Z,6.72
2023-09-29T10:46:09.936Z,8.05
2023-09-29T10:49:32.340Z,6.78
2023-09-29T10:52:56.299Z,8.32
2023-09-29T10:56:10.311Z,7.47
2023-09-29T10:59:12.954Z,8.70
2023-09-29T11:02:15.490Z,8.73
2023-09-29T11:05:18.308Z,5.72
2023-09-29T11:08:26.272Z,7.20
2023-09-29T11:11:37.587Z,8.18
2023-09-29T11:14:41.205Z,6.90
2023-09-29T11:17:51.506Z,8.70
2023-09-29T11:20:54.401Z,10.18
2023-09-29T11:24:06.240Z,7.90
2023-09-29T11:27:08.635Z,9.63
2023-09-29T11:30:12.073Z,10.87
2023-09-29T11:33:16.257Z,6.78
2023-09-29T11:36:24.376Z,8.35
2023-09-29T11:39:26.646Z,5.77
2023-09-29T11:42:29.384Z,8.88
2023-09-29T11:45:31.737Z,6.97
2023-09-29T11:48:34.047Z,6.97
2023-09-29T11:51:36.419Z,7.57
2023-09-29T11:54:39.349Z,6.05
2023-09-29T11:57:41.982Z,6.20
2023-09-29T12:00:44.307Z,5.17
2023-09-29T12:03:46.881Z,8.95
2023-09-29T12:06:49.244Z,6.75
2023-09-29T12:09:51.664Z,6.63
2023-09-29T12:12:53.824Z,6.72
2023-09-29T12:15:56.213Z,7.10
2023-09-29T12:18:58.509Z,6.63
2023-09-29T12:22:00.754Z,6.82
2023-09-29T12:25:02.938Z,9.05
2023-09-29T12:28:05.545Z,7.30
2023-09-29T12:31:16.020Z,7.27
2023-09-29T12:34:19.101Z,8.93
2023-09-29T12:37:21.347Z,7.88
2023-09-29T12:40:23.652Z,6.87
2023-09-29T12:43:25.797Z,7.32
2023-09-29T12:46:27.989Z,5.30
2023-09-29T12:49:30.429Z,6.45
2023-09-29T12:52:32.850Z,5.85
2023-09-29T12:55:35.166Z,8.98
2023-09-29T12:58:37.331Z,5.10
2023-09-29T13:01:39.810Z,5.77
2023-09-29T13:04:43.127Z,5.63
2023-09-29T13:07:50.520Z,5.40
2023-09-29T13:10:52.777Z,5.97
2023-09-29T13:13:55.741Z,8.18
2023-09-29T13:16:59.059Z,7.15
2023-09-29T13:20:01.287Z,7.28
2023-09-29T13:23:03.526Z,5.13
2023-09-29T13:26:06.550Z,5.57
2023-09-29T13:29:09.783Z,6.45
2023-09-29T13:32:12.952Z,6.47
2023-09-29T13:35:15.201Z,7.05
2023-09-29T13:38:18.851Z,6.80
2023-09-29T13:41:21.809Z,5.93
2023-09-29T13:44:23.961Z,5.95
2023-09-29T13:47:26.308Z,9.75
2023-09-29T13:50:30.341Z,7.78
2023-09-29T13:53:32.535Z,6.32
2023-09-29T13:56:35.052Z,6.88
2023-09-29T13:59:37.505Z,7.97
2023-09-29T14:02:39.751Z,5.83
2023-09-29T14:05:42.745Z,7.10
2023-09-29T14:08:45.529Z,5.28
2023-09-29T14:11:47.873Z,5.97
2023-09-29T14:14:50.173Z,6.35
2023-09-29T14:17:52.561Z,6.25
2023-09-29T14:20:54.808Z,6.53
2023-09-29T14:23:57.274Z,10.82
2023-09-29T14:26:59.968Z,6.68
2023-09-29T14:30:04.832Z,6.60
2023-09-29T14:33:07.258Z,8.73
2023-09-29T14:36:09.615Z,6.28
2023-09-29T14:39:12.202Z,6.68
2023-09-29T14:42:14.609Z,5.83
2023-09-29T14:45:16.978Z,5.63
2023-09-29T14:48:20.791Z,7.72
2023-09-29T14:51:23.437Z,5.55
2023-09-29T14:54:26.151Z,7.88
2023-09-29T14:57:28.395Z,6.05
2023-09-29T15:00:30.656Z,7.15
2023-09-29T15:03:33.321Z,8.53
2023-09-29T15:06:35.765Z,8.95
2023-09-29T15:09:38.190Z,5.95
2023-09-29T15:12:40.382Z,7.90
2023-09-29T15:15:42.992Z,5.20
2023-09-29T15:18:50.676Z,5.07
2023-09-29T15:21:53.071Z,9.88
2023-09-29T15:24:55.426Z,7.35
2023-09-29T15:27:57.709Z,6.45
2023-09-29T15:31:00.957Z,6.30
2023-09-29T15:34:03.681Z,6.87
2023-09-29T15:37:06.498Z,5.97
2023-09-29T15:40:12.318Z,5.97
2023-09-29T15:43:14.520Z,6.50
2023-09-29T15:46:17.850Z,5.30
2023-09-29T15:49:20.375Z,7.70
2023-09-29T15:52:23.232Z,7.97
2023-09-29T15:55:25.367Z,6.28
2023-09-29T15:58:27.578Z,6.15
2023-09-29T16:01:30.219Z,6.03
2023-09-29T16:04:32.685Z,7.23
2023-09-29T16:07:35.008Z,5.97
2023-09-29T16:10:37.177Z,8.02
2023-09-29T16:13:39.501Z,5.03
2023-09-29T16:16:46.036Z,8.13
2023-09-29T16:19:48.701Z,6.00
2023-09-29T16:22:51.996Z,8.13
2023-09-29T16:25:54.232Z,10.88
2023-09-29T16:28:56.537Z,8.13
2023-09-29T16:31:59.331Z,6.55
2023-09-29T16:35:02.237Z,11.10
2023-09-29T16:38:05.161Z,10.45
2023-09-29T16:41:07.401Z,7.00
2023-09-29T16:44:10.850Z,7.40
2023-09-29T16:47:13.285Z,6.55
2023-09-29T16:50:16.564Z,8.32
2023-09-29T16:53:19.045Z,6.60
2023-09-29T16:56:26.316Z,10.60
2023-09-29T16:59:28.481Z,6.30
2023-09-29T17:02:30.796Z,7.22
2023-09-29T17:05:34.882Z,10.67
2023-09-29T17:08:37.701Z,11.65
2023-09-29T17:11:45.210Z,10.70
2023-09-29T17:14:47.454Z,9.57
2023-09-29T17:17:49.688Z,12.32
2023-09-29T17:20:53.245Z,10.63
2023-09-29T17:23:56.086Z,10.05
2023-09-29T17:26:58.610Z,14.35
2023-09-29T17:30:01.058Z,11.15
2023-09-29T17:33:03.466Z,10.98
2023-09-29T17:36:07.072Z,15.10
2023-09-29T17:39:09.318Z,10.77
2023-09-29T17:42:12.590Z,12.82
2023-09-29T17:45:15.087Z,16.67
2023-09-29T17:48:34.406Z,14.68
2023-09-29T17:51:39.990Z,11.45
2023-09-29T17:54:42.228Z,10.98
2023-09-29T17:57:44.438Z,11.77
2023-09-29T18:00:46.617Z,15.65
2023-09-29T18:03:49.068Z,15.93
2023-09-29T18:06:57.349Z,21.33
2023-09-29T18:09:59.889Z,22.67
2023-09-29T18:13:02.487Z,16.13
2023-09-29T18:16:06.822Z,14.07
2023-09-29T18:19:09.077Z,15.02
2023-09-29T18:22:11.287Z,16.17
2023-09-29T18:25:13.550Z,18.30
2023-09-29T18:28:15.926Z,21.88
2023-09-29T18:31:18.174Z,52.22
2023-09-29T18:34:20.415Z,39.50
2023-09-29T18:37:24.390Z,36.20
2023-09-29T18:40:28.103Z,45.25
2023-09-29T18:43:30.329Z,59.03
2023-09-29T18:46:32.533Z,70.03
2023-09-29T18:49:34.829Z,77.50
2023-09-29T18:52:37.021Z,120.05
2023-09-29T18:55:42.085Z,115.03
2023-09-29T18:58:44.370Z,85.68
2023-09-29T19:01:46.827Z,61.38
2023-09-29T19:04:50.777Z,47.15
2023-09-29T19:07:53.033Z,41.33
2023-09-29T19:10:56.277Z,39.42
2023-09-29T19:13:58.590Z,40.50
2023-09-29T19:17:03.427Z,34.83
2023-09-29T19:20:06.458Z,26.20
2023-09-29T19:23:08.661Z,28.30
2023-09-29T19:26:14.931Z,28.02
2023-09-29T19:29:17.090Z,27.70
2023-09-29T19:32:19.304Z,27.02
2023-09-29T19:35:21.487Z,25.80
2023-09-29T19:38:23.678Z,23.67
2023-09-29T19:41:28.563Z,25.98
2023-09-29T19:44:30.911Z,27.65
2023-09-29T19:47:33.135Z,26.00
2023-09-29T19:50:35.302Z,26.25
2023-09-29T19:53:38.052Z,26.92
2023-09-29T19:56:40.305Z,26.25
2023-09-29T19:59:42.558Z,24.48
2023-09-29T20:02:45.004Z,23.75
2023-09-29T20:05:48.731Z,18.30
2023-09-29T20:08:51.656Z,20.33
2023-09-29T20:11:54.311Z,18.63
2023-09-29T20:14:56.658Z,18.77
2023-09-29T20:17:58.917Z,20.67
2023-09-29T20:21:02.903Z,19.10
2023-09-29T20:24:14.461Z,19.70
2023-09-29T20:27:17.367Z,17.80
2023-09-29T20:30:20.904Z,19.73
2023-09-29T20:33:23.411Z,17.02
2023-09-29T20:36:29.158Z,18.95
2023-09-29T20:39:33.033Z,20.93
2023-09-29T20:42:35.747Z,20.10
2023-09-29T20:45:38.043Z,20.60
2023-09-29T20:48:40.529Z,17.67
2023-09-29T20:51:42.767Z,17.20
2023-09-29T20:54:45.493Z,15.45
2023-09-29T20:57:47.704Z,15.88
2023-09-29T21:00:49.904Z,16.80
2023-09-29T21:03:52.245Z,21.73
2023-09-29T21:06:54.574Z,19.58
2023-09-29T21:09:57.019Z,23.07
2023-09-29T21:12:59.239Z,18.35
2023-09-29T21:16:01.770Z,15.20
2023-09-29T21:19:05.374Z,16.77
2023-09-29T21:22:07.868Z,17.67
2023-09-29T21:25:11.893Z,16.67
2023-09-29T21:28:14.268Z,18.70
2023-09-29T21:31:16.787Z,14.80
2023-09-29T21:34:19.638Z,13.13
2023-09-29T21:37:21.788Z,14.75
2023-09-29T21:40:23.940Z,16.43
2023-09-29T21:43:26.110Z,17.25
2023-09-29T21:46:28.370Z,15.73
2023-09-29T21:49:30.868Z,16.73
2023-09-29T21:52:33.115Z,15.25
2023-09-29T21:55:36.999Z,15.63
2023-09-29T21:58:39.255Z,15.90
2023-09-29T22:01:42.183Z,15.75
2023-09-29T22:04:44.518Z,15.52
2023-09-29T22:07:47.292Z,16.05
2023-09-29T22:10:50.628Z,14.80
2023-09-29T22:13:53.040Z,16.45
2023-09-29T22:16:55.228Z,14.50
2023-09-29T22:19:57.536Z,17.67
2023-09-29T22:23:00.098Z,17.67
2023-09-29T22:26:02.318Z,15.70
2023-09-29T22:29:04.726Z,17.55
2023-09-29T22:32:06.981Z,17.73
2023-09-29T22:35:09.908Z,16.42
2023-09-29T22:38:12.088Z,16.05
2023-09-29T22:41:16.308Z,15.30
2023-09-29T22:44:18.640Z,16.80
2023-09-29T22:47:20.894Z,15.40
2023-09-29T22:50:23.248Z,16.03
2023-09-29T22:53:28.548Z,15.75
2023-09-29T22:56:30.885Z,15.05
2023-09-29T22:59:33.536Z,13.75
2023-09-29T23:02:36.267Z,13.98
2023-09-29T23:05:38.614Z,13.23
2023-09-29T23:08:40.888Z,15.35
2023-09-29T23:11:43.189Z,13.40
2023-09-29T23:14:46.221Z,14.23
2023-09-29T23:17:48.503Z,14.63
2023-09-29T23:20:52.049Z,14.97
2023-09-29T23:23:54.877Z,16.92
2023-09-29T23:26:57.101Z,15.45
2023-09-29T23:29:59.351Z,14.98
2023-09-29T23:33:01.641Z,16.15
2023-09-29T23:36:07.717Z,14.30
2023-09-29T23:39:12.500Z,12.48
2023-09-29T23:42:15.093Z,15.27
2023-09-29T23:45:17.421Z,13.85
2023-09-29T23:48:19.760Z,14.48
2023-09-29T23:51:22.041Z,16.70
2023-09-29T23:54:26.412Z,13.38
2023-09-29T23:57:28.643Z,18.08
